Time;durP1;ratioP1;P1;durP2;ratioP2;P2;SDS_P1;SDS_P2;PMS_P1;PMS_P2;Temp;Humidity;BMP_temperature;BMP_pressure;BME280_temperature;BME280_humidity;BME280_pressure;Samples;Min_cycle;Max_cycle;Signal;HPM_P1;HPM_P2
2022/10/18 00:02:07;;;;;;;0.80;0.80;;;;;;;28.91;23.11;99222.53;5068114;28;20051;-80
2022/10/18 00:04:33;;;;;;;1.00;0.90;;;;;;;29.15;22.54;99209.81;5064654;28;20488;-80
2022/10/18 00:06:59;;;;;;;1.00;0.90;;;;;;;29.21;22.34;99215.75;5066877;28;20124;-80
2022/10/18 00:09:26;;;;;;;3.08;1.02;;;;;;;28.96;22.34;99210.69;5062256;28;20028;-80
2022/10/18 00:11:53;;;;;;;1.42;0.95;;;;;;;28.78;22.74;99210.31;5065967;28;20039;-80
2022/10/18 00:14:19;;;;;;;4.05;0.70;;;;;;;28.85;22.98;99209.34;5060821;28;20103;-80
2022/10/18 00:16:45;;;;;;;0.70;0.70;;;;;;;28.96;23.10;99202.22;5057219;28;20044;-80
2022/10/18 00:19:11;;;;;;;1.77;0.70;;;;;;;29.13;22.63;99200.97;5070111;28;20032;-79
2022/10/18 00:21:37;;;;;;;1.80;0.70;;;;;;;29.12;22.43;99202.22;5070090;28;20392;-79
2022/10/18 00:24:04;;;;;;;1.20;0.77;;;;;;;29.21;22.46;99207.28;5064867;28;20400;-80
2022/10/18 00:26:30;;;;;;;4.40;0.80;;;;;;;29.07;22.45;99201.94;5068035;28;20569;-80
2022/10/18 00:29:00;;;;;;;0.70;0.70;;;;;;;28.83;23.01;99194.84;5057127;28;20033;-80
2022/10/18 00:31:29;;;;;;;0.88;0.80;;;;;;;29.04;22.52;99203.63;5061850;28;20029;-80
2022/10/18 00:34:20;;;;;;;0.73;0.73;;;;;;;29.12;22.49;99198.59;5061764;28;20036;-80
2022/10/18 00:36:46;;;;;;;2.40;0.85;;;;;;;29.18;22.54;99189.16;5057567;28;20082;-80
2022/10/18 00:39:16;;;;;;;3.15;1.02;;;;;;;29.12;22.75;99193.72;5052501;28;20040;-80
2022/10/18 00:41:43;;;;;;;0.95;0.68;;;;;;;29.11;22.56;99192.13;5062589;28;20028;-80
2022/10/18 00:44:12;;;;;;;0.90;0.70;;;;;;;29.15;22.40;99190.00;5069731;28;20484;-80
2022/10/18 00:46:40;;;;;;;1.73;0.88;;;;;;;28.95;22.48;99189.31;5061576;28;20045;-80
2022/10/18 00:49:17;;;;;;;1.45;0.90;;;;;;;28.79;22.74;99186.47;5069927;28;20036;-80
2022/10/18 00:52:05;;;;;;;1.00;0.70;;;;;;;28.65;23.16;99183.97;5064692;28;20035;-80
2022/10/18 00:54:34;;;;;;;1.52;0.90;;;;;;;28.30;23.78;99184.72;5062484;28;20090;-81
2022/10/18 00:57:01;;;;;;;1.80;0.75;;;;;;;28.44;23.46;99190.06;5068896;28;20060;-80
2022/10/18 00:59:28;;;;;;;1.48;0.73;;;;;;;28.65;23.50;99186.78;5070015;28;20082;-80
2022/10/18 01:01:54;;;;;;;1.48;0.80;;;;;;;28.94;22.77;99184.09;5073161;28;20024;-80
2022/10/18 01:04:21;;;;;;;2.78;0.57;;;;;;;29.21;22.32;99176.97;5062206;28;20094;-80
2022/10/18 01:07:06;;;;;;;0.93;0.68;;;;;;;29.34;22.21;99177.03;5064508;28;20043;-80
2022/10/18 01:10:02;;;;;;;1.08;0.80;;;;;;;29.38;22.26;99180.56;5061741;28;20039;-80
2022/10/18 01:13:05;;;;;;;0.90;0.80;;;;;;;29.62;21.79;99183.97;5064707;28;20108;-80
2022/10/18 01:15:35;;;;;;;1.10;0.70;;;;;;;29.75;21.72;99179.16;5080590;28;20502;-80
2022/10/18 01:18:19;;;;;;;1.55;1.02;;;;;;;29.31;21.72;99175.88;5078152;28;20033;-80
2022/10/18 01:21:11;;;;;;;4.30;2.70;;;;;;;29.11;21.86;99168.69;5070378;28;20496;-80
2022/10/18 01:24:15;;;;;;;2.55;0.70;;;;;;;29.26;21.86;99178.47;5062821;28;20036;-80
2022/10/18 01:27:02;;;;;;;0.93;0.80;;;;;;;29.36;21.51;99183.81;5072676;28;20039;-80
2022/10/18 01:29:52;;;;;;;1.77;0.80;;;;;;;29.18;21.66;99175.00;5073422;28;20039;-80
2022/10/18 01:32:41;;;;;;;1.17;0.82;;;;;;;29.14;21.65;99182.78;5070423;28;20039;-80
2022/10/18 01:35:14;;;;;;;1.58;1.02;;;;;;;29.31;21.58;99183.59;5073402;28;20037;-80
2022/10/18 01:37:45;;;;;;;1.35;1.10;;;;;;;29.33;21.80;99181.91;5066873;28;20036;-80
2022/10/18 01:40:14;;;;;;;1.20;1.10;;;;;;;29.34;21.89;99183.47;5070694;28;20770;-80
2022/10/18 01:42:42;;;;;;;1.15;0.93;;;;;;;29.02;21.48;99188.31;5066468;28;20036;-80
2022/10/18 01:45:10;;;;;;;1.73;1.00;;;;;;;28.50;22.43;99193.97;5074862;28;20032;-80
2022/10/18 01:47:36;;;;;;;1.30;1.00;;;;;;;28.71;22.17;99179.38;5074912;28;20455;-80
2022/10/18 01:50:05;;;;;;;1.40;1.10;;;;;;;28.96;21.63;99187.28;5073055;28;20031;-80
2022/10/18 01:52:31;;;;;;;0.90;0.85;;;;;;;28.91;21.43;99179.31;5072197;28;20032;-80
2022/10/18 01:54:58;;;;;;;1.30;1.20;;;;;;;28.93;21.07;99177.63;5074197;28;20060;-80
2022/10/18 01:57:40;;;;;;;1.45;1.10;;;;;;;28.95;21.74;99182.84;5071015;28;20040;-80
2022/10/18 02:00:53;;;;;;;3.53;0.80;;;;;;;28.92;21.56;99186.53;5067126;28;20037;-80
2022/10/18 02:03:25;;;;;;;1.10;0.90;;;;;;;28.84;21.38;99171.00;5016930;28;20038;-80
2022/10/18 02:06:04;;;;;;;1.63;0.93;;;;;;;28.72;21.40;99178.94;5013262;28;20043;-80
2022/10/18 02:08:43;;;;;;;1.80;1.00;;;;;;;28.19;22.44;99192.63;5037985;28;20060;-80
2022/10/18 02:11:12;;;;;;;2.15;0.77;;;;;;;28.10;22.25;99186.78;5069132;28;20037;-79
2022/10/18 02:13:46;;;;;;;0.70;0.70;;;;;;;28.22;22.32;99177.63;5074708;28;20024;-80
2022/10/18 02:16:22;;;;;;;1.17;1.00;;;;;;;27.85;22.59;99188.03;5071159;28;20369;-79
2022/10/18 02:19:00;;;;;;;0.82;0.82;;;;;;;27.89;22.79;99183.13;5062292;28;20512;-80
2022/10/18 02:21:28;;;;;;;1.13;0.90;;;;;;;27.81;22.87;99180.88;5071224;28;20032;-80
2022/10/18 02:23:57;;;;;;;1.92;1.10;;;;;;;28.13;22.75;99183.06;5073593;28;20024;-79
2022/10/18 02:26:23;;;;;;;1.42;0.82;;;;;;;28.49;22.07;99181.06;5067652;28;20049;-80
2022/10/18 02:28:50;;;;;;;1.00;0.90;;;;;;;28.40;22.07;99183.72;5066469;28;20550;-79
2022/10/18 02:31:26;;;;;;;1.08;0.93;;;;;;;28.27;22.01;99183.56;5070408;28;20089;-80
2022/10/18 02:34:01;;;;;;;1.08;0.85;;;;;;;28.31;22.30;99184.28;5071510;28;20035;-79
2022/10/18 02:36:41;;;;;;;2.63;0.90;;;;;;;28.20;22.06;99174.44;5068852;28;20040;-80
2022/10/18 02:39:13;;;;;;;0.90;0.80;;;;;;;28.35;22.29;99185.03;5070627;28;20040;-79
2022/10/18 02:41:40;;;;;;;1.50;1.17;;;;;;;28.52;21.75;99174.56;5071417;28;20032;-79
2022/10/18 02:44:06;;;;;;;1.45;0.98;;;;;;;28.48;22.04;99176.66;5072579;28;20119;-80
2022/10/18 02:46:34;;;;;;;1.30;0.95;;;;;;;28.45;22.15;99178.31;5072370;28;20082;-80
2022/10/18 02:49:00;;;;;;;1.30;1.10;;;;;;;28.65;21.79;99181.13;5069255;28;20082;-80
2022/10/18 02:51:26;;;;;;;1.30;0.90;;;;;;;28.84;21.18;99185.13;5070951;28;20041;-80
2022/10/18 02:53:52;;;;;;;0.77;0.77;;;;;;;28.56;21.06;99178.91;5065281;28;20035;-80
2022/10/18 02:56:18;;;;;;;2.47;1.00;;;;;;;27.65;22.05;99184.41;5070008;28;20079;-79
2022/10/18 02:58:44;;;;;;;1.05;0.95;;;;;;;27.54;22.35;99186.63;5068833;28;20032;-79
2022/10/18 03:01:10;;;;;;;1.30;0.85;;;;;;;27.40;22.86;99179.22;5070578;28;20087;-80
2022/10/18 03:03:36;;;;;;;1.55;1.10;;;;;;;27.63;22.68;99192.53;5056760;28;20033;-79
2022/10/18 03:06:03;;;;;;;1.98;1.17;;;;;;;27.63;22.67;99184.06;5068249;28;20127;-79
2022/10/18 03:08:29;;;;;;;4.07;1.40;;;;;;;27.92;22.51;99182.25;5070736;28;20115;-79
2022/10/18 03:10:55;;;;;;;2.28;1.42;;;;;;;28.06;22.32;99187.66;5072323;28;20036;-80
2022/10/18 03:13:22;;;;;;;2.22;1.35;;;;;;;27.95;22.52;99195.50;5067324;28;20396;-80
2022/10/18 03:15:48;;;;;;;1.45;1.23;;;;;;;27.80;22.34;99191.38;5070225;28;20029;-80
2022/10/18 03:18:14;;;;;;;1.88;1.27;;;;;;;27.74;22.49;99192.31;5064510;28;20619;-79
2022/10/18 03:20:41;;;;;;;1.98;1.20;;;;;;;27.77;22.58;99188.63;5065441;28;20037;-80
2022/10/18 03:23:07;;;;;;;1.70;1.13;;;;;;;28.00;22.10;99189.41;5064148;28;20045;-79
2022/10/18 03:25:34;;;;;;;1.17;1.08;;;;;;;28.18;22.08;99189.00;5073562;28;20048;-80
2022/10/18 03:28:00;;;;;;;1.25;1.13;;;;;;;28.23;21.84;99194.16;5068221;28;20033;-80
2022/10/18 03:30:26;;;;;;;1.15;1.02;;;;;;;28.22;22.12;99186.09;5069747;28;20038;-80
2022/10/18 03:32:55;;;;;;;1.13;1.00;;;;;;;28.28;21.76;99190.81;5064573;28;20037;-80
2022/10/18 03:35:22;;;;;;;1.45;1.10;;;;;;;28.41;21.64;99194.56;5068339;28;20036;-80
2022/10/18 03:37:48;;;;;;;2.03;1.13;;;;;;;28.46;21.48;99181.94;5080416;28;20033;-80
2022/10/18 03:40:14;;;;;;;1.83;1.50;;;;;;;28.37;21.52;99176.09;5062935;28;20173;-80
2022/10/18 03:42:40;;;;;;;1.27;1.08;;;;;;;28.41;21.65;99182.47;5070292;28;20033;-80
2022/10/18 03:45:07;;;;;;;1.45;1.15;;;;;;;28.49;21.93;99181.06;5072876;28;20025;-80
2022/10/18 03:47:33;;;;;;;2.97;1.27;;;;;;;28.55;22.00;99179.31;5069059;28;20497;-80
2022/10/18 03:49:59;;;;;;;2.03;1.23;;;;;;;28.73;21.71;99177.69;5066260;28;20043;-80
2022/10/18 03:52:25;;;;;;;1.65;1.48;;;;;;;28.63;21.31;99175.94;5070230;28;20067;-80
2022/10/18 03:54:51;;;;;;;1.38;1.00;;;;;;;28.50;21.46;99188.31;5066659;28;20052;-80
2022/10/18 03:57:17;;;;;;;1.45;1.17;;;;;;;28.56;21.38;99181.72;5071976;28;20036;-80
2022/10/18 03:59:43;;;;;;;2.55;1.42;;;;;;;28.67;21.30;99179.47;5073527;28;20103;-80
2022/10/18 04:02:09;;;;;;;2.92;1.02;;;;;;;28.67;21.36;99185.13;5061545;28;20037;-80
2022/10/18 04:04:35;;;;;;;1.25;1.00;;;;;;;28.75;20.56;99183.69;5067700;28;20040;-80
2022/10/18 04:07:02;;;;;;;1.60;1.00;;;;;;;28.63;20.08;99175.13;5060121;28;20037;-80
2022/10/18 04:09:28;;;;;;;1.42;1.30;;;;;;;27.91;20.56;99180.66;5062871;28;20472;-80
2022/10/18 04:11:54;;;;;;;2.20;0.90;;;;;;;27.71;20.87;99179.84;5061734;28;20480;-79
2022/10/18 04:14:20;;;;;;;2.97;0.95;;;;;;;27.59;21.90;99185.31;5068532;28;20025;-80
2022/10/18 04:16:47;;;;;;;1.13;0.90;;;;;;;27.21;22.64;99184.78;5065264;28;20380;-79
2022/10/18 04:19:13;;;;;;;3.38;1.05;;;;;;;27.09;22.60;99176.94;5056523;28;20112;-80
2022/10/18 04:21:39;;;;;;;1.70;1.10;;;;;;;26.95;23.29;99171.53;5069248;28;20119;-80
2022/10/18 04:24:05;;;;;;;1.95;1.42;;;;;;;27.18;22.69;99165.91;5068919;28;20025;-80
2022/10/18 04:26:31;;;;;;;1.88;1.20;;;;;;;27.23;22.77;99176.69;5063539;28;20049;-79
2022/10/18 04:28:57;;;;;;;1.48;1.00;;;;;;;27.28;22.83;99179.03;5057639;28;20036;-80
2022/10/18 04:31:23;;;;;;;1.67;1.40;;;;;;;27.28;22.33;99174.16;5067496;28;20063;-80
2022/10/18 04:33:50;;;;;;;1.30;1.00;;;;;;;27.56;22.24;99177.75;5065122;28;20020;-80
2022/10/18 04:36:16;;;;;;;1.48;1.20;;;;;;;27.83;22.18;99173.56;5068100;28;20044;-80
2022/10/18 04:38:42;;;;;;;1.83;1.45;;;;;;;28.08;22.04;99173.09;5066732;28;20055;-80
2022/10/18 04:41:08;;;;;;;1.83;1.30;;;;;;;28.24;21.61;99180.84;5063559;28;20412;-80
2022/10/18 04:43:34;;;;;;;1.50;1.15;;;;;;;28.33;21.35;99178.22;5063710;28;20039;-80
2022/10/18 04:46:00;;;;;;;2.95;1.00;;;;;;;28.41;21.18;99173.97;5054161;28;20041;-80
2022/10/18 04:48:29;;;;;;;1.80;1.10;;;;;;;28.46;20.97;99168.63;5063428;28;20049;-83
2022/10/18 04:50:55;;;;;;;0.90;0.90;;;;;;;28.02;21.09;99181.28;5079314;28;20104;-80
2022/10/18 04:53:21;;;;;;;1.13;1.05;;;;;;;27.79;21.36;99178.50;5078629;28;20105;-80
2022/10/18 04:55:49;;;;;;;1.13;0.90;;;;;;;26.68;23.11;99172.31;5072303;28;20037;-80
2022/10/18 04:58:16;;;;;;;4.60;1.30;;;;;;;26.60;23.66;99164.41;5068795;28;20138;-80
2022/10/18 05:00:43;;;;;;;1.90;1.23;;;;;;;27.01;22.73;99161.34;5055280;28;20024;-80
2022/10/18 05:03:11;;;;;;;2.03;1.20;;;;;;;26.96;22.93;99170.28;5060908;28;20098;-80
2022/10/18 05:05:37;;;;;;;1.50;1.15;;;;;;;26.84;23.55;99165.28;5072533;28;20381;-80
2022/10/18 05:08:04;;;;;;;1.67;1.13;;;;;;;27.16;22.75;99169.16;5072776;28;20521;-80
2022/10/18 05:10:30;;;;;;;0.95;0.93;;;;;;;27.42;22.65;99168.28;5073981;28;20032;-80
2022/10/18 05:12:57;;;;;;;2.17;1.17;;;;;;;27.68;22.17;99166.59;5076736;28;20028;-80
2022/10/18 05:15:23;;;;;;;1.02;0.80;;;;;;;28.01;21.63;99164.75;5081843;28;20032;-79
2022/10/18 05:17:52;;;;;;;1.00;0.90;;;;;;;28.22;21.28;99172.78;5067870;28;20064;-80
2022/10/18 05:20:18;;;;;;;1.17;1.00;;;;;;;28.13;21.80;99174.59;5070941;28;20029;-80
2022/10/18 05:22:44;;;;;;;1.50;1.02;;;;;;;27.98;21.77;99179.72;5072275;28;20044;-80
2022/10/18 05:25:10;;;;;;;1.38;0.90;;;;;;;28.04;21.81;99172.38;5071245;28;20040;-80
2022/10/18 05:27:36;;;;;;;1.40;0.98;;;;;;;28.19;21.49;99182.16;5069279;28;20507;-80
2022/10/18 05:30:03;;;;;;;3.15;1.20;;;;;;;28.28;21.72;99178.72;5071532;28;20028;-80
2022/10/18 05:32:30;;;;;;;0.85;0.75;;;;;;;28.28;22.14;99184.38;5067670;28;20032;-80
2022/10/18 05:34:56;;;;;;;1.30;0.95;;;;;;;28.23;21.30;99185.69;5057951;28;20401;-80
2022/10/18 05:37:22;;;;;;;1.05;0.90;;;;;;;28.25;21.51;99188.06;5059249;28;20035;-80
2022/10/18 05:39:48;;;;;;;2.20;1.00;;;;;;;28.35;21.80;99185.03;5062794;28;20025;-80
2022/10/18 05:42:14;;;;;;;1.55;1.10;;;;;;;28.36;21.89;99182.97;5066841;28;20032;-80
2022/10/18 05:44:40;;;;;;;2.78;0.88;;;;;;;28.37;21.60;99179.72;5067255;28;20562;-80
2022/10/18 05:47:06;;;;;;;1.35;0.90;;;;;;;28.58;21.53;99187.72;5065552;28;20063;-80
2022/10/18 05:49:32;;;;;;;1.65;1.10;;;;;;;28.37;21.81;99188.19;5071020;28;20040;-80
2022/10/18 05:51:58;;;;;;;1.10;0.95;;;;;;;28.41;22.10;99188.09;5062017;28;20033;-80
2022/10/18 05:54:24;;;;;;;0.93;0.82;;;;;;;28.40;22.27;99195.78;5071579;28;20039;-80
2022/10/18 05:56:50;;;;;;;1.38;1.10;;;;;;;28.60;22.16;99188.09;5072982;28;20086;-80
2022/10/18 05:59:16;;;;;;;1.00;0.90;;;;;;;28.93;22.06;99183.28;5060373;28;20445;-80
2022/10/18 06:01:42;;;;;;;1.10;1.00;;;;;;;28.96;21.65;99184.44;5061445;28;20025;-80
2022/10/18 06:04:09;;;;;;;1.58;1.23;;;;;;;29.17;21.70;99186.75;5055489;28;20427;-80
2022/10/18 06:06:36;;;;;;;1.70;1.17;;;;;;;29.35;21.34;99182.25;5065556;28;20035;-80
2022/10/18 06:09:05;;;;;;;1.90;1.55;;;;;;;29.31;21.49;99192.84;5068077;28;20032;-80
2022/10/18 06:11:31;;;;;;;1.65;1.25;;;;;;;29.26;21.81;99189.78;5068573;28;20028;-80
2022/10/18 06:13:58;;;;;;;1.83;1.35;;;;;;;29.52;21.51;99200.00;5069100;28;20059;-80
2022/10/18 06:16:26;;;;;;;1.95;1.10;;;;;;;29.62;21.51;99204.56;5065700;28;20032;-80
2022/10/18 06:18:55;;;;;;;1.27;1.13;;;;;;;29.84;21.48;99196.34;5058896;28;20381;-80
2022/10/18 06:21:23;;;;;;;1.50;1.40;;;;;;;30.03;21.11;99195.38;5058433;28;20033;-80
2022/10/18 06:23:57;;;;;;;1.35;1.15;;;;;;;30.16;21.02;99190.53;5070889;28;20032;-80
2022/10/18 06:26:24;;;;;;;1.23;1.13;;;;;;;29.92;21.17;99192.06;5059337;28;20564;-80
2022/10/18 06:28:50;;;;;;;3.03;1.13;;;;;;;29.16;22.28;99199.28;5064363;28;20108;-80
2022/10/18 06:31:20;;;;;;;1.95;1.00;;;;;;;29.02;22.55;99210.94;5062874;28;20040;-80
2022/10/18 06:33:46;;;;;;;1.50;1.40;;;;;;;29.41;22.23;99208.75;5056711;28;20111;-80
2022/10/18 06:36:21;;;;;;;1.65;1.38;;;;;;;29.70;22.19;99196.69;5065240;28;20032;-80
2022/10/18 06:38:47;;;;;;;1.30;1.20;;;;;;;30.13;21.84;99202.75;5066984;28;20029;-80
2022/10/18 06:41:14;;;;;;;2.30;1.30;;;;;;;30.39;21.87;99204.44;5066449;28;20025;-80
2022/10/18 06:43:40;;;;;;;1.35;1.17;;;;;;;30.53;21.55;99204.03;5055663;28;20048;-79
2022/10/18 06:46:07;;;;;;;2.90;1.55;;;;;;;30.33;21.87;99200.59;5058149;28;20029;-80
2022/10/18 06:48:37;;;;;;;2.65;1.23;;;;;;;29.68;23.00;99204.84;5064927;28;20033;-80
2022/10/18 06:51:05;;;;;;;2.88;1.73;;;;;;;29.49;23.37;99208.59;5067669;28;20035;-80
2022/10/18 06:53:34;;;;;;;1.42;1.30;;;;;;;29.75;23.27;99207.47;5064989;28;20025;-80
2022/10/18 06:56:09;;;;;;;1.63;1.27;;;;;;;29.78;23.39;99203.78;5062315;28;20025;-80
2022/10/18 06:58:35;;;;;;;2.42;1.67;;;;;;;29.93;23.02;99205.78;5068415;28;20037;-80
2022/10/18 07:01:08;;;;;;;1.40;1.25;;;;;;;30.42;22.83;99211.25;5059668;28;20048;-80
2022/10/18 07:03:35;;;;;;;2.42;1.30;;;;;;;30.33;23.02;99211.94;5060254;28;20025;-80
2022/10/18 07:06:06;;;;;;;2.10;1.60;;;;;;;30.36;23.37;99207.41;5060616;28;20130;-80
2022/10/18 07:08:33;;;;;;;3.00;1.70;;;;;;;30.71;22.98;99207.09;5059582;28;20036;-80
2022/10/18 07:10:59;;;;;;;2.45;1.80;;;;;;;31.08;22.76;99201.91;5071300;28;20500;-80
2022/10/18 07:13:29;;;;;;;2.10;1.70;;;;;;;31.46;22.62;99193.38;5067242;28;20032;-80
2022/10/18 07:16:04;;;;;;;2.63;1.85;;;;;;;31.48;23.04;99186.00;5069833;28;20032;-80
2022/10/18 07:18:34;;;;;;;2.30;1.67;;;;;;;31.57;22.54;99196.63;5066118;28;20508;-80
2022/10/18 07:21:05;;;;;;;4.73;1.83;;;;;;;31.19;23.51;99193.84;5070420;28;20060;-80
2022/10/18 07:23:37;;;;;;;2.45;1.52;;;;;;;31.28;22.96;99203.25;5066335;28;20290;-80
2022/10/18 07:26:11;;;;;;;2.90;2.10;;;;;;;31.30;22.96;99197.91;5052655;28;20048;-80
2022/10/18 07:28:37;;;;;;;4.95;2.13;;;;;;;31.68;22.52;99197.84;5062293;28;20039;-80
2022/10/18 07:31:07;;;;;;;4.25;1.85;;;;;;;31.96;23.12;99196.84;5065589;28;20415;-80
2022/10/18 07:33:34;;;;;;;3.22;1.90;;;;;;;32.25;22.56;99195.78;5062787;28;20107;-80
2022/10/18 07:36:02;;;;;;;2.53;1.98;;;;;;;32.54;22.01;99199.16;5065337;28;20462;-80
2022/10/18 07:38:28;;;;;;;4.85;2.10;;;;;;;32.71;21.90;99194.81;5063296;28;20450;-81
2022/10/18 07:40:59;;;;;;;2.78;2.30;;;;;;;32.78;21.88;99193.75;5064033;28;20366;-81
2022/10/18 07:43:25;;;;;;;2.42;2.10;;;;;;;32.82;21.46;99192.34;5068302;28;20416;-80
2022/10/18 07:45:56;;;;;;;3.15;2.13;;;;;;;32.96;21.54;99190.97;5067901;28;20111;-80
2022/10/18 07:48:22;;;;;;;4.88;2.75;;;;;;;33.04;21.83;99173.16;5062322;28;20041;-82
2022/10/18 07:50:48;;;;;;;4.20;2.40;;;;;;;33.08;21.33;99173.00;5062990;28;20423;-80
2022/10/18 07:53:15;;;;;;;3.85;2.70;;;;;;;32.97;21.89;99179.13;5065590;28;20060;-81
2022/10/18 07:55:42;;;;;;;3.65;2.47;;;;;;;33.16;20.82;99160.88;5064086;28;20037;-80
2022/10/18 07:58:08;;;;;;;2.97;2.33;;;;;;;33.13;21.64;99167.50;5060969;28;20033;-80
2022/10/18 08:00:34;;;;;;;3.75;2.67;;;;;;;33.06;21.35;99169.84;5052785;28;20095;-80
2022/10/18 08:03:00;;;;;;;5.70;2.63;;;;;;;32.85;20.86;99177.19;5062051;28;20040;-80
2022/10/18 08:05:27;;;;;;;2.95;2.60;;;;;;;32.51;22.79;99171.66;5061577;28;21417;-81
2022/10/18 08:19:40;;;;;;;4.65;4.10;;;;;;;33.21;22.80;99148.06;5108094;27;20805;-79
2022/10/18 08:22:06;;;;;;;6.05;3.78;;;;;;;33.58;22.32;99143.22;5069872;28;20394;-79
2022/10/18 08:24:32;;;;;;;4.18;3.22;;;;;;;33.70;20.86;99145.13;5040772;28;20043;-79
2022/10/18 08:26:58;;;;;;;4.63;2.70;;;;;;;33.79;21.29;99136.59;5040100;28;20022;-79
2022/10/18 08:29:24;;;;;;;5.53;2.78;;;;;;;33.50;22.12;99136.22;5044685;28;20040;-79
2022/10/18 08:31:50;;;;;;;4.72;3.33;;;;;;;33.35;21.47;99142.53;5034361;28;20075;-79
2022/10/18 08:34:16;;;;;;;3.13;2.42;;;;;;;33.20;21.03;99140.78;5033110;28;20085;-79
2022/10/18 08:36:42;;;;;;;3.97;2.78;;;;;;;32.63;22.13;99142.31;5049604;28;20021;-79
2022/10/18 08:39:08;;;;;;;5.63;2.20;;;;;;;32.93;21.35;99135.00;5047285;28;20043;-79
2022/10/18 08:41:40;;;;;;;5.95;2.22;;;;;;;33.04;21.32;99139.03;5039927;28;20036;-79
2022/10/18 08:44:29;;;;;;;3.50;2.08;;;;;;;33.57;21.66;99131.03;5040612;28;20481;-79
2022/10/18 08:47:03;;;;;;;2.10;1.67;;;;;;;33.70;20.34;99122.34;5034123;28;20042;-80
2022/10/18 08:49:38;;;;;;;2.90;1.90;;;;;;;33.95;20.71;99119.94;5044887;28;20034;-79
2022/10/18 08:52:28;;;;;;;2.88;1.95;;;;;;;33.27;21.54;99114.84;5040747;28;20414;-79
2022/10/18 08:55:02;;;;;;;3.17;2.13;;;;;;;32.78;22.67;99117.72;5035496;28;20390;-79
2022/10/18 08:57:29;;;;;;;4.22;2.08;;;;;;;33.31;21.98;99110.59;5037281;28;20022;-80
2022/10/18 08:59:55;;;;;;;3.35;2.10;;;;;;;33.52;21.02;99111.69;5040690;28;20037;-79
2022/10/18 09:02:34;;;;;;;3.10;1.67;;;;;;;33.97;21.67;99106.00;5038856;28;20033;-80
2022/10/18 09:05:29;;;;;;;1.60;1.50;;;;;;;34.25;20.92;99111.66;5041153;28;20033;-80
2022/10/18 09:08:16;;;;;;;4.50;1.75;;;;;;;34.52;20.62;99106.69;5032868;28;20067;-80
2022/10/18 09:11:19;;;;;;;2.45;1.52;;;;;;;34.57;20.50;99105.22;5038039;28;20033;-80
2022/10/18 09:14:11;;;;;;;2.38;1.60;;;;;;;34.69;21.56;99099.31;5040244;28;20120;-79
2022/10/18 09:17:03;;;;;;;3.05;1.55;;;;;;;34.40;20.38;99096.22;5036213;28;20100;-80
2022/10/18 09:19:53;;;;;;;1.70;1.55;;;;;;;33.59;21.18;99096.38;5049998;28;20148;-82
2022/10/18 09:22:30;;;;;;;2.17;1.40;;;;;;;32.46;23.10;99093.41;5029756;28;20064;-80
2022/10/18 09:25:16;;;;;;;1.50;1.40;;;;;;;33.53;22.87;99092.59;5029434;28;20021;-80
2022/10/18 09:27:47;;;;;;;3.20;1.48;;;;;;;34.29;21.99;99080.91;5029268;28;20040;-80
2022/10/18 09:30:36;;;;;;;2.20;1.35;;;;;;;33.78;21.41;99083.69;5026020;28;20033;-81
2022/10/18 09:33:38;;;;;;;3.15;1.40;;;;;;;34.54;21.14;99072.75;5024041;28;20790;-81
2022/10/18 09:36:26;;;;;;;2.95;1.50;;;;;;;34.69;21.23;99067.13;5020278;28;20180;-81
2022/10/18 09:38:58;;;;;;;1.75;1.25;;;;;;;35.01;21.34;99068.38;5031727;28;20029;-81
2022/10/18 09:41:31;;;;;;;2.08;1.83;;;;;;;35.01;20.62;99063.44;5025356;28;20029;-81
2022/10/18 09:44:19;;;;;;;2.15;1.52;;;;;;;34.98;21.05;99055.06;5028270;28;20034;-81
2022/10/18 09:47:10;;;;;;;1.67;1.38;;;;;;;34.89;20.65;99058.78;5024314;28;20034;-81
2022/10/18 09:49:44;;;;;;;1.42;1.15;;;;;;;34.87;20.23;99054.84;5015345;28;20506;-81
2022/10/18 09:52:23;;;;;;;1.85;1.52;;;;;;;34.82;20.83;99046.94;5026809;28;20112;-81
2022/10/18 09:54:58;;;;;;;1.60;1.38;;;;;;;34.96;19.61;99037.66;5039929;28;20858;-81
2022/10/18 09:57:43;;;;;;;1.65;1.27;;;;;;;34.90;20.19;99039.56;5028262;28;20128;-82
2022/10/18 10:00:21;;;;;;;2.50;1.27;;;;;;;34.80;19.65;99035.22;5029010;28;20036;-81
2022/10/18 10:02:47;;;;;;;1.10;1.00;;;;;;;34.86;19.54;99039.78;5027779;28;20084;-82
2022/10/18 10:05:14;;;;;;;2.63;1.23;;;;;;;34.26;20.23;99031.34;5030822;28;20047;-81
2022/10/18 10:07:48;;;;;;;1.98;1.13;;;;;;;34.64;20.45;99028.66;5025576;28;20048;-81
2022/10/18 10:10:25;;;;;;;1.20;1.10;;;;;;;34.90;20.34;99025.31;5030925;28;20045;-81
2022/10/18 10:13:02;;;;;;;1.60;1.38;;;;;;;35.13;19.51;99028.19;5030334;28;20030;-81
2022/10/18 10:15:29;;;;;;;1.15;1.05;;;;;;;35.27;19.41;99026.63;5015801;28;20030;-81
2022/10/18 10:18:04;;;;;;;2.15;1.20;;;;;;;35.71;19.85;99021.03;5023222;28;20034;-82
2022/10/18 10:20:44;;;;;;;1.42;0.90;;;;;;;36.13;18.61;99024.38;5024775;28;20112;-81
2022/10/18 10:23:40;;;;;;;1.27;1.13;;;;;;;35.34;21.13;99014.84;5023368;28;20517;-82
2022/10/18 10:26:26;;;;;;;1.98;1.30;;;;;;;34.22;21.92;99015.69;5028987;28;20081;-82
2022/10/18 10:28:53;;;;;;;1.30;1.20;;;;;;;34.78;20.29;99012.88;5019847;28;20408;-81
2022/10/18 10:31:28;;;;;;;1.13;0.90;;;;;;;35.46;21.05;99004.41;5030056;28;20120;-81
2022/10/18 10:34:12;;;;;;;1.45;1.33;;;;;;;35.86;20.79;99004.66;5047066;28;20037;-81
2022/10/18 10:36:53;;;;;;;1.42;1.10;;;;;;;36.35;20.00;99003.91;5029342;28;20030;-81
2022/10/18 10:39:20;;;;;;;;;;;;;;;36.36;17.93;98991.22;5026377;28;20040;-81
2022/10/18 10:41:55;;;;;;;3.50;1.33;;;;;;;36.78;19.51;98985.06;5029630;28;19932;-81
2022/10/18 10:44:31;;;;;;;1.55;1.08;;;;;;;37.10;19.15;98978.19;5028919;28;20117;-81
2022/10/18 10:46:58;;;;;;;2.55;1.27;;;;;;;36.46;19.68;98975.50;5025215;28;20033;-81
2022/10/18 10:49:49;;;;;;;2.55;1.10;;;;;;;35.82;21.25;98976.28;5025996;28;20124;-81
2022/10/18 10:52:20;;;;;;;1.27;1.00;;;;;;;35.60;20.62;98970.16;5023130;28;20438;-81
2022/10/18 10:54:47;;;;;;;3.17;1.90;;;;;;;33.35;24.56;98960.31;5033129;28;20036;-81
2022/10/18 10:57:13;;;;;;;4.88;1.98;;;;;;;32.45;25.36;98961.03;5029726;28;20045;-82
2022/10/18 10:59:44;;;;;;;2.38;2.15;;;;;;;33.46;24.85;98947.66;5026326;28;20033;-81
2022/10/18 11:02:22;;;;;;;2.25;2.03;;;;;;;34.47;21.51;98952.50;5027179;28;20552;-81
2022/10/18 11:04:53;;;;;;;2.35;2.03;;;;;;;34.77;22.34;98944.88;5030836;28;20083;-82
2022/10/18 11:07:38;;;;;;;3.13;2.28;;;;;;;33.60;23.42;98944.16;5026281;28;20041;-81
2022/10/18 11:10:10;;;;;;;4.05;2.80;;;;;;;32.20;24.76;98932.06;5022140;28;20033;-81
2022/10/18 11:12:43;;;;;;;5.55;3.10;;;;;;;31.29;25.19;98934.44;5028345;28;20029;-81
2022/10/18 11:15:13;;;;;;;3.42;2.50;;;;;;;33.49;22.82;98935.31;5027042;28;20100;-81
2022/10/18 11:17:47;;;;;;;5.20;2.80;;;;;;;33.87;22.72;98927.75;5021805;28;20050;-82
2022/10/18 11:20:21;;;;;;;3.75;2.53;;;;;;;34.84;21.86;98921.66;5024220;28;20355;-81
2022/10/18 11:23:00;;;;;;;3.35;1.92;;;;;;;34.59;21.71;98912.34;5025546;28;20471;-81
2022/10/18 11:25:44;;;;;;;2.22;1.95;;;;;;;34.85;21.14;98920.38;5021038;28;20095;-81
2022/10/18 11:28:46;;;;;;;4.85;1.85;;;;;;;34.71;20.24;98899.88;5026109;28;20034;-81
2022/10/18 11:31:30;;;;;;;2.05;1.77;;;;;;;34.40;22.04;98902.31;5019832;28;20038;-81
2022/10/18 11:34:12;;;;;;;2.92;1.98;;;;;;;35.37;21.14;98896.75;5023265;28;20029;-82
2022/10/18 11:36:59;;;;;;;2.63;2.42;;;;;;;34.78;23.37;98895.88;5019501;28;20439;-82
2022/10/18 11:39:56;;;;;;;2.50;2.22;;;;;;;34.78;22.89;98897.91;5021900;28;20448;-83
2022/10/18 11:42:32;;;;;;;1.75;1.65;;;;;;;33.76;23.71;98884.75;5029355;28;20030;-83
2022/10/18 11:45:37;;;;;;;5.93;2.38;;;;;;;34.07;22.19;98890.94;5024880;28;20050;-82
2022/10/18 11:48:18;;;;;;;3.47;2.58;;;;;;;33.86;21.50;98888.34;5020896;28;20045;-82
2022/10/18 11:50:57;;;;;;;8.18;4.00;;;;;;;32.70;25.90;98889.66;5025636;28;20038;-83
2022/10/18 11:53:32;;;;;;;3.47;2.38;;;;;;;34.44;21.02;98885.03;5029346;28;20520;-82
2022/10/18 11:56:21;;;;;;;5.47;2.22;;;;;;;35.33;20.63;98879.03;5028259;28;20025;-82
2022/10/18 11:59:04;;;;;;;4.43;2.20;;;;;;;35.26;19.82;98882.28;5030381;28;20028;-82
2022/10/18 12:01:35;;;;;;;3.33;2.15;;;;;;;35.89;20.06;98872.97;5036302;28;20487;-81
2022/10/18 12:04:19;;;;;;;2.88;2.60;;;;;;;35.68;21.67;98876.28;5017441;28;20368;-82
2022/10/18 12:06:49;;;;;;;2.63;2.28;;;;;;;35.26;20.92;98873.72;5034977;28;20049;-83
2022/10/18 12:09:24;;;;;;;2.38;1.98;;;;;;;35.02;22.21;98878.72;5020321;28;20041;-82